createdAt,value
2019-03-25T00:00:28.483Z,93.40
2019-03-25T00:02:56.756Z,93.50
2019-03-25T00:05:24.806Z,93.50
2019-03-25T00:07:52.807Z,93.50
2019-03-25T00:10:20.940Z,93.40
2019-03-25T00:12:49.020Z,93.30
2019-03-25T00:15:17.409Z,93.40
2019-03-25T00:17:45.681Z,93.50
2019-03-25T00:20:13.633Z,93.60
2019-03-25T00:22:41.752Z,93.30
2019-03-25T00:25:28.880Z,94.10
2019-03-25T00:28:16.052Z,93.70
2019-03-25T00:30:44.152Z,93.90
2019-03-25T00:33:12.397Z,94.00
2019-03-25T00:35:40.675Z,94.30
2019-03-25T00:38:08.652Z,94.50
2019-03-25T00:40:37.177Z,94.40
2019-03-25T00:43:24.348Z,94.90
2019-03-25T00:45:52.325Z,94.90
2019-03-25T00:48:20.380Z,95.10
2019-03-25T00:50:48.667Z,94.90
2019-03-25T00:53:16.645Z,95.00
2019-03-25T00:55:44.725Z,94.80
2019-03-25T00:58:12.770Z,94.60
2019-03-25T01:00:41.337Z,95.00
2019-03-25T01:03:09.428Z,94.90
2019-03-25T01:05:37.327Z,94.70
2019-03-25T01:08:05.608Z,95.00
2019-03-25T01:10:52.718Z,95.10
2019-03-25T01:13:20.863Z,95.20
2019-03-25T01:15:48.940Z,95.00
2019-03-25T01:18:17.552Z,95.10
2019-03-25T01:20:45.737Z,95.30
2019-03-25T01:23:13.821Z,95.30
2019-03-25T01:25:41.758Z,95.30
2019-03-25T01:28:09.804Z,95.30
2019-03-25T01:30:37.908Z,95.20
2019-03-25T01:33:05.812Z,95.50
2019-03-25T01:35:33.856Z,95.10
2019-03-25T01:38:01.816Z,95.20
2019-03-25T01:40:30.076Z,95.20
2019-03-25T01:42:58.053Z,95.50
2019-03-25T01:45:26.441Z,95.60
2019-03-25T01:47:54.496Z,95.60
2019-03-25T01:50:22.661Z,95.80
2019-03-25T01:52:50.693Z,95.60
2019-03-25T01:55:18.687Z,95.40
2019-03-25T01:57:46.832Z,95.30
2019-03-25T02:00:34.212Z,95.30
2019-03-25T02:03:02.239Z,95.30
2019-03-25T02:05:49.396Z,95.50
2019-03-25T02:08:19.619Z,95.30
2019-03-25T02:10:47.674Z,95.80
2019-03-25T02:13:15.968Z,95.50
2019-03-25T02:15:44.048Z,95.00
2019-03-25T02:18:12.010Z,95.10
2019-03-25T02:20:40.219Z,95.40
2019-03-25T02:23:10.060Z,95.50
2019-03-25T02:25:38.296Z,95.80
2019-03-25T02:28:06.263Z,96.00
2019-03-25T02:30:37.078Z,96.60
2019-03-25T02:33:05.100Z,96.40
2019-03-25T02:35:33.325Z,96.80
2019-03-25T02:38:04.396Z,96.50
2019-03-25T02:40:32.358Z,96.50
2019-03-25T02:43:19.529Z,96.10
2019-03-25T02:45:59.545Z,96.00
2019-03-25T02:48:27.735Z,95.90
2019-03-25T02:50:55.735Z,96.00
2019-03-25T02:53:28.727Z,95.60
2019-03-25T02:55:56.624Z,95.60
2019-03-25T02:58:43.868Z,95.30
2019-03-25T03:01:12.103Z,95.00
2019-03-25T03:03:40.089Z,94.90
2019-03-25T03:06:27.148Z,95.10
2019-03-25T03:08:55.182Z,95.00
2019-03-25T03:11:23.296Z,95.10
2019-03-25T03:13:51.298Z,94.90
2019-03-25T03:16:19.284Z,94.70
2019-03-25T03:18:47.274Z,94.60
2019-03-25T03:21:15.244Z,94.80
2019-03-25T03:23:43.112Z,95.20
2019-03-25T03:26:11.176Z,95.10
2019-03-25T03:28:59.995Z,95.00
2019-03-25T03:31:28.017Z,94.80
2019-03-25T03:33:56.149Z,94.60
2019-03-25T03:36:24.281Z,94.50
2019-03-25T03:38:52.174Z,94.50
2019-03-25T03:41:20.191Z,94.70
2019-03-25T03:43:48.226Z,94.80
2019-03-25T03:46:16.115Z,95.00
2019-03-25T03:49:03.203Z,94.90
2019-03-25T03:51:31.457Z,94.80
2019-03-25T03:53:59.297Z,94.70
2019-03-25T03:56:27.596Z,94.30
2019-03-25T03:59:14.895Z,94.40
2019-03-25T04:01:42.917Z,94.20
2019-03-25T04:04:10.821Z,94.20
2019-03-25T04:06:38.976Z,93.90
2019-03-25T04:09:06.984Z,93.50
2019-03-25T04:11:34.848Z,93.70
2019-03-25T04:14:02.929Z,93.60
2019-03-25T04:16:31.196Z,93.90
2019-03-25T04:18:59.127Z,93.70
2019-03-25T04:21:27.160Z,93.80
2019-03-25T04:23:55.077Z,93.90
2019-03-25T04:26:29.024Z,94.10
2019-03-25T04:28:52.859Z,93.90
2019-03-25T04:31:20.836Z,93.80
2019-03-25T04:33:48.951Z,93.70
2019-03-25T04:36:16.919Z,93.40
2019-03-25T04:39:05.471Z,93.50
2019-03-25T04:41:33.653Z,93.20
2019-03-25T04:44:01.679Z,93.40
2019-03-25T04:46:48.730Z,93.60
2019-03-25T04:49:16.653Z,93.60
2019-03-25T04:52:04.641Z,93.90
2019-03-25T04:54:32.762Z,93.80
2019-03-25T04:57:00.610Z,93.90
2019-03-25T04:59:28.665Z,93.90
2019-03-25T05:01:56.874Z,93.90
2019-03-25T05:04:24.834Z,94.10
2019-03-25T05:06:52.930Z,94.10
2019-03-25T05:09:20.906Z,94.20
2019-03-25T05:11:48.794Z,94.40
2019-03-25T05:14:16.936Z,94.50
2019-03-25T05:16:44.952Z,94.50
2019-03-25T05:19:12.871Z,94.50
2019-03-25T05:21:41.014Z,94.30
2019-03-25T05:24:08.931Z,94.30
2019-03-25T05:26:36.989Z,94.30
2019-03-25T05:29:05.119Z,94.20
2019-03-25T05:31:33.449Z,93.80
2019-03-25T05:34:01.410Z,93.70
2019-03-25T05:36:48.563Z,94.10
2019-03-25T05:39:35.837Z,94.30
2019-03-25T05:42:04.051Z,94.40
2019-03-25T05:44:32.075Z,94.10
2019-03-25T05:47:00.319Z,94.00
2019-03-25T05:49:28.414Z,93.20
2019-03-25T05:51:56.329Z,93.20
2019-03-25T05:54:24.450Z,92.80
2019-03-25T05:57:01.949Z,92.60
2019-03-25T05:59:22.356Z,92.80
2019-03-25T06:01:50.538Z,92.80
2019-03-25T06:04:18.466Z,93.10
2019-03-25T06:06:46.555Z,92.70
2019-03-25T06:09:14.736Z,92.80
2019-03-25T06:11:42.668Z,92.80
2019-03-25T06:14:10.705Z,92.20
2019-03-25T06:16:38.633Z,92.10
2019-03-25T06:19:06.740Z,92.30
2019-03-25T06:21:34.655Z,92.20
2019-03-25T06:24:02.631Z,92.20
2019-03-25T06:26:30.719Z,92.40
2019-03-25T06:28:58.906Z,92.40
2019-03-25T06:31:26.808Z,92.50
2019-03-25T06:33:54.865Z,92.80
2019-03-25T06:36:22.900Z,92.70
2019-03-25T06:38:50.792Z,92.20
2019-03-25T06:41:19.064Z,92.60
2019-03-25T06:43:47.434Z,93.90
2019-03-25T06:46:15.513Z,94.40
2019-03-25T06:48:43.716Z,93.90
2019-03-25T06:51:30.816Z,93.80
2019-03-25T06:53:58.777Z,93.90
2019-03-25T06:56:27.254Z,94.10
2019-03-25T06:59:14.628Z,94.10
2019-03-25T07:04:27.636Z,94.00
2019-03-25T07:06:55.791Z,94.20
2019-03-25T07:09:23.665Z,94.10
2019-03-25T07:11:51.879Z,94.30
2019-03-25T07:14:39.228Z,94.20
2019-03-25T07:17:07.169Z,93.80
2019-03-25T07:19:35.191Z,94.20
2019-03-25T07:22:03.153Z,94.00
2019-03-25T07:24:31.233Z,94.50
2019-03-25T07:26:59.796Z,94.80
2019-03-25T07:29:27.923Z,94.90
2019-03-25T07:31:55.970Z,95.00
2019-03-25T07:34:24.273Z,95.30
2019-03-25T07:36:52.267Z,95.00
2019-03-25T07:39:39.505Z,94.10
2019-03-25T07:42:07.736Z,92.90
2019-03-25T07:44:35.868Z,92.90
2019-03-25T07:47:03.769Z,92.80
2019-03-25T07:49:31.697Z,93.20
2019-03-25T07:51:59.681Z,93.50
2019-03-25T07:54:27.569Z,93.40
2019-03-25T07:57:14.729Z,92.70
2019-03-25T07:59:43.027Z,92.70
2019-03-25T08:02:10.985Z,92.20
2019-03-25T08:04:39.092Z,92.40
2019-03-25T08:07:07.288Z,92.50
2019-03-25T08:09:35.367Z,92.70
2019-03-25T08:12:03.440Z,92.80
2019-03-25T08:14:50.933Z,92.90
2019-03-25T08:17:18.954Z,93.30
2019-03-25T08:19:46.882Z,93.60
2019-03-25T08:22:15.192Z,93.90
2019-03-25T08:24:43.261Z,93.80
2019-03-25T08:27:11.112Z,93.70
2019-03-25T08:29:39.240Z,93.70
2019-03-25T08:32:07.236Z,93.90
2019-03-25T08:34:54.301Z,93.50
2019-03-25T08:37:22.226Z,92.90
2019-03-25T08:39:50.237Z,93.00
2019-03-25T08:42:18.223Z,92.30
2019-03-25T08:44:46.147Z,92.70
2019-03-25T08:47:14.227Z,92.30
2019-03-25T08:49:42.113Z,92.50
2019-03-25T08:52:10.070Z,92.50
2019-03-25T08:54:38.317Z,92.60
2019-03-25T08:57:06.243Z,92.90
2019-03-25T08:59:34.145Z,93.00
2019-03-25T09:02:21.221Z,92.90
2019-03-25T09:04:49.463Z,92.50
2019-03-25T09:07:17.531Z,92.90
2019-03-25T09:09:45.479Z,92.70
2019-03-25T09:12:13.579Z,92.70
2019-03-25T09:14:41.477Z,92.50
2019-03-25T09:17:09.402Z,92.70
2019-03-25T09:19:37.637Z,92.80
2019-03-25T09:22:05.610Z,92.40
2019-03-25T09:24:33.516Z,92.70
2019-03-25T09:29:46.422Z,92.60
2019-03-25T09:32:14.739Z,92.90
2019-03-25T09:34:42.636Z,93.10
2019-03-25T09:37:10.567Z,92.70
2019-03-25T09:39:57.736Z,92.90
2019-03-25T09:42:38.158Z,92.80
2019-03-25T09:45:18.658Z,92.40
2019-03-25T09:47:46.733Z,92.00
2019-03-25T09:50:14.680Z,92.20
2019-03-25T09:53:01.747Z,91.70
2019-03-25T09:55:29.854Z,91.90
2019-03-25T09:57:58.149Z,91.90
2019-03-25T10:00:30.102Z,92.20
2019-03-25T10:02:58.028Z,92.20
2019-03-25T10:05:25.979Z,92.60
2019-03-25T10:07:53.855Z,92.60
2019-03-25T10:10:21.679Z,92.20
2019-03-25T10:12:49.731Z,92.10
2019-03-25T10:15:17.883Z,92.00
2019-03-25T10:18:05.148Z,92.10
2019-03-25T10:20:33.208Z,91.00
2019-03-25T10:23:01.334Z,91.50
2019-03-25T10:25:29.403Z,91.80
2019-03-25T10:27:57.254Z,91.30
2019-03-25T10:30:25.350Z,91.20
2019-03-25T10:33:12.571Z,91.80
2019-03-25T10:38:25.859Z,92.10
2019-03-25T10:40:53.759Z,92.40
2019-03-25T10:43:21.769Z,92.50
2019-03-25T10:45:49.946Z,92.60
2019-03-25T10:48:17.845Z,93.80
2019-03-25T10:50:45.734Z,93.40
2019-03-25T10:53:13.891Z,92.70
2019-03-25T10:56:01.169Z,93.80
2019-03-25T10:58:29.143Z,92.80
2019-03-25T11:00:58.369Z,93.00
2019-03-25T11:03:26.335Z,93.30
2019-03-25T11:05:54.325Z,93.40
2019-03-25T11:08:22.473Z,92.70
2019-03-25T11:10:50.539Z,93.20
2019-03-25T11:13:18.510Z,93.40
2019-03-25T11:16:05.587Z,95.20
2019-03-25T11:18:33.781Z,95.60
2019-03-25T11:21:01.715Z,95.80
2019-03-25T11:23:29.744Z,95.50
2019-03-25T11:25:57.944Z,95.10
2019-03-25T11:28:25.847Z,95.30
2019-03-25T11:30:58.404Z,95.90
2019-03-25T11:33:26.272Z,95.60
2019-03-25T11:35:54.353Z,95.20
2019-03-25T11:38:41.533Z,95.00
2019-03-25T11:41:28.787Z,94.70
2019-03-25T11:43:56.704Z,95.10
2019-03-25T11:46:43.783Z,94.30
2019-03-25T11:49:11.670Z,93.90
2019-03-25T11:51:39.698Z,93.20
2019-03-25T11:54:07.933Z,92.30
2019-03-25T11:56:35.864Z,93.40
2019-03-25T11:59:03.966Z,92.50
2019-03-25T12:01:51.228Z,93.20
2019-03-25T12:04:19.182Z,92.00
2019-03-25T12:06:47.122Z,92.60
2019-03-25T12:09:15.352Z,91.70
2019-03-25T12:11:43.316Z,91.20
2019-03-25T12:14:11.295Z,91.40
2019-03-25T12:16:39.362Z,91.50
2019-03-25T12:19:07.359Z,91.30
2019-03-25T12:21:54.414Z,91.70
2019-03-25T12:24:22.316Z,90.60
2019-03-25T12:26:50.607Z,91.40
2019-03-25T12:29:29.323Z,89.90
2019-03-25T12:31:48.666Z,91.10
2019-03-25T12:34:16.653Z,90.70
2019-03-25T12:36:44.771Z,90.40
2019-03-25T12:39:12.853Z,89.50
2019-03-25T12:41:40.689Z,90.20
2019-03-25T12:44:27.755Z,90.30
2019-03-25T12:47:08.318Z,90.20
2019-03-25T12:49:36.293Z,89.80
2019-03-25T12:52:04.304Z,89.50
2019-03-25T12:54:32.343Z,86.70
2019-03-25T12:57:00.489Z,85.90
2019-03-25T12:59:28.456Z,86.30
2019-03-25T13:01:56.697Z,85.90
2019-03-25T13:04:24.762Z,85.70
2019-03-25T13:06:52.765Z,86.80
2019-03-25T13:09:21.191Z,85.20
2019-03-25T13:11:49.131Z,86.30
2019-03-25T13:14:17.130Z,88.20
2019-03-25T13:16:45.215Z,86.50
2019-03-25T13:19:13.216Z,87.20
2019-03-25T13:21:41.127Z,87.60
2019-03-25T13:24:09.228Z,88.30
2019-03-25T13:26:37.516Z,88.60
2019-03-25T13:29:05.486Z,88.20
2019-03-25T13:31:33.751Z,86.50
2019-03-25T13:34:01.800Z,86.00
2019-03-25T13:36:29.803Z,85.70
2019-03-25T13:38:58.086Z,86.90
2019-03-25T13:41:26.049Z,86.50
2019-03-25T13:43:54.096Z,86.20
2019-03-25T13:46:22.201Z,85.50
2019-03-25T13:48:50.075Z,86.50
2019-03-25T13:51:18.139Z,86.50
2019-03-25T13:53:46.201Z,86.70
2019-03-25T13:56:14.128Z,86.80
2019-03-25T13:58:41.988Z,85.60
2019-03-25T14:01:29.063Z,85.60
2019-03-25T14:03:57.273Z,84.80
2019-03-25T14:06:25.584Z,85.90
2019-03-25T14:08:55.717Z,85.40
2019-03-25T14:11:24.238Z,87.90
2019-03-25T14:13:52.456Z,87.70
2019-03-25T14:16:20.573Z,89.30
2019-03-25T14:18:48.489Z,89.80
2019-03-25T14:21:35.635Z,89.20
2019-03-25T14:24:03.706Z,90.10
2019-03-25T14:26:31.851Z,90.60
2019-03-25T14:29:18.913Z,90.60
2019-03-25T14:31:46.958Z,90.80
2019-03-25T14:34:15.531Z,90.70
2019-03-25T14:36:43.639Z,91.10
2019-03-25T14:39:11.551Z,91.50
2019-03-25T14:41:58.628Z,91.10
2019-03-25T14:44:26.867Z,91.00
2019-03-25T14:46:55.082Z,91.40
2019-03-25T14:49:22.948Z,91.50
2019-03-25T14:51:50.910Z,91.60
2019-03-25T14:54:18.987Z,91.70
2019-03-25T14:56:46.889Z,91.70
2019-03-25T14:59:14.926Z,91.50
2019-03-25T15:01:42.803Z,91.40
2019-03-25T15:04:10.670Z,91.30
2019-03-25T15:06:38.659Z,91.30
2019-03-25T15:09:06.876Z,91.40
2019-03-25T15:11:34.731Z,91.40
2019-03-25T15:14:21.822Z,91.10
2019-03-25T15:16:49.847Z,91.10
2019-03-25T15:19:17.764Z,91.20
2019-03-25T15:21:45.685Z,91.10
2019-03-25T15:24:13.619Z,91.10
2019-03-25T15:27:00.709Z,91.10
2019-03-25T15:29:28.876Z,91.10
2019-03-25T15:31:56.919Z,91.50
2019-03-25T15:34:24.927Z,91.20
2019-03-25T15:36:53.015Z,91.60
2019-03-25T15:39:20.910Z,91.20
2019-03-25T15:41:48.815Z,91.40
2019-03-25T15:44:16.959Z,91.70
2019-03-25T15:46:55.106Z,91.80
2019-03-25T15:49:15.101Z,91.90
2019-03-25T15:51:45.460Z,92.10
2019-03-25T15:54:13.552Z,92.20
2019-03-25T15:56:41.551Z,92.40
2019-03-25T15:59:28.696Z,92.60
2019-03-25T16:01:56.672Z,92.50
2019-03-25T16:04:25.019Z,92.40
2019-03-25T16:06:53.147Z,92.50
2019-03-25T16:09:21.060Z,92.70
2019-03-25T16:11:49.274Z,92.80
2019-03-25T16:14:36.545Z,92.50
2019-03-25T16:17:04.554Z,92.70
2019-03-25T16:19:32.394Z,93.00
2019-03-25T16:22:00.492Z,93.10
2019-03-25T16:24:28.467Z,93.20
2019-03-25T16:27:15.659Z,93.10
2019-03-25T16:29:43.619Z,93.20
2019-03-25T16:32:11.786Z,93.00
2019-03-25T16:34:58.930Z,93.20
2019-03-25T16:37:27.062Z,93.10
2019-03-25T16:39:54.966Z,93.10
2019-03-25T16:42:22.892Z,93.20
2019-03-25T16:44:50.939Z,93.40
2019-03-25T16:47:19.060Z,93.40
2019-03-25T16:49:46.965Z,93.40
2019-03-25T16:52:15.096Z,93.40
2019-03-25T16:54:43.454Z,93.30
2019-03-25T16:57:30.591Z,93.60
2019-03-25T16:59:58.512Z,93.60
2019-03-25T17:02:26.743Z,93.80
2019-03-25T17:04:56.995Z,93.90
2019-03-25T17:07:25.152Z,94.10
2019-03-25T17:09:53.100Z,94.10
2019-03-25T17:12:21.003Z,93.90
2019-03-25T17:14:48.999Z,94.20
2019-03-25T17:17:17.361Z,94.40
2019-03-25T17:19:45.368Z,94.50
2019-03-25T17:22:13.475Z,94.60
2019-03-25T17:24:41.572Z,94.70
2019-03-25T17:27:09.495Z,94.70
2019-03-25T17:29:56.562Z,94.70
2019-03-25T17:32:24.764Z,94.80
2019-03-25T17:34:52.965Z,95.00
2019-03-25T17:37:20.893Z,95.10
2019-03-25T17:39:49.191Z,95.00
2019-03-25T17:42:17.476Z,95.10
2019-03-25T17:44:45.541Z,95.00
2019-03-25T17:47:13.654Z,95.00
2019-03-25T17:49:41.636Z,95.40
2019-03-25T17:52:28.826Z,95.50
2019-03-25T17:54:56.878Z,95.20
2019-03-25T17:57:25.101Z,95.20
2019-03-25T18:00:12.917Z,95.40
2019-03-25T18:02:43.611Z,95.30
2019-03-25T18:05:11.769Z,95.40
2019-03-25T18:07:39.666Z,95.30
2019-03-25T18:10:07.775Z,95.10
2019-03-25T18:12:39.115Z,95.20
2019-03-25T18:15:07.947Z,95.40
2019-03-25T18:17:35.980Z,95.30
2019-03-25T18:20:05.007Z,95.50
2019-03-25T18:22:39.475Z,95.70
2019-03-25T18:25:03.240Z,95.70
2019-03-25T18:27:31.406Z,95.70
2019-03-25T18:29:59.337Z,95.50
2019-03-25T18:32:27.560Z,95.40
2019-03-25T18:34:55.447Z,95.30
2019-03-25T18:37:23.395Z,95.10
2019-03-25T18:39:51.553Z,95.00
2019-03-25T18:42:19.677Z,95.00
2019-03-25T18:44:47.642Z,95.20
2019-03-25T18:47:15.557Z,95.20
2019-03-25T18:49:44.495Z,95.10
2019-03-25T18:52:14.541Z,95.30
2019-03-25T18:54:42.654Z,95.20
2019-03-25T18:57:10.663Z,95.20
2019-03-25T18:59:38.892Z,95.50
2019-03-25T19:02:07.134Z,95.40
2019-03-25T19:04:35.030Z,95.40
2019-03-25T19:07:03.086Z,95.40
2019-03-25T19:09:31.215Z,95.50
2019-03-25T19:11:59.202Z,95.70
2019-03-25T19:14:29.349Z,95.50
2019-03-25T19:16:57.348Z,95.50
2019-03-25T19:19:25.219Z,95.30
2019-03-25T19:21:53.319Z,95.40
2019-03-25T19:24:21.552Z,95.30
2019-03-25T19:26:49.523Z,95.10
2019-03-25T19:29:17.525Z,95.30
2019-03-25T19:32:06.867Z,95.40
2019-03-25T19:34:34.696Z,95.30
2019-03-25T19:37:02.636Z,95.30
2019-03-25T19:39:30.776Z,95.20
2019-03-25T19:41:59.003Z,95.50
2019-03-25T19:44:26.954Z,95.60
2019-03-25T19:46:55.158Z,95.80
2019-03-25T19:49:23.242Z,95.70
2019-03-25T19:51:51.284Z,95.80
2019-03-25T19:54:19.300Z,95.90
2019-03-25T19:56:47.555Z,95.80
2019-03-25T19:59:15.543Z,95.70
2019-03-25T20:01:43.514Z,95.70
2019-03-25T20:04:11.761Z,95.60
2019-03-25T20:06:39.747Z,95.80
2019-03-25T20:09:07.682Z,95.60
2019-03-25T20:11:54.859Z,95.60
2019-03-25T20:14:24.425Z,95.60
2019-03-25T20:16:52.373Z,95.60
2019-03-25T20:19:20.501Z,95.40
2019-03-25T20:22:07.881Z,95.50
2019-03-25T20:24:35.853Z,95.50
2019-03-25T20:27:03.835Z,95.60
2019-03-25T20:29:34.870Z,95.50
2019-03-25T20:32:31.175Z,95.80
2019-03-25T20:34:51.897Z,95.40
2019-03-25T20:37:41.105Z,95.70
2019-03-25T20:40:11.009Z,95.50
2019-03-25T20:42:54.892Z,95.60
2019-03-25T20:45:42.334Z,95.50
2019-03-25T20:48:11.247Z,95.60
2019-03-25T20:50:39.305Z,95.60
2019-03-25T20:53:26.379Z,96.00
2019-03-25T20:55:54.668Z,95.80
2019-03-25T20:58:23.323Z,95.70
2019-03-25T21:00:55.812Z,95.70
2019-03-25T21:03:23.941Z,95.60
2019-03-25T21:05:51.885Z,95.70
2019-03-25T21:08:20.022Z,95.60
2019-03-25T21:10:48.229Z,95.40
2019-03-25T21:13:16.221Z,95.40
2019-03-25T21:16:03.509Z,95.50
2019-03-25T21:18:31.479Z,95.40
2019-03-25T21:20:59.669Z,95.40
2019-03-25T21:23:47.483Z,95.50
2019-03-25T21:26:15.470Z,95.00
2019-03-25T21:29:02.738Z,95.20
2019-03-25T21:31:49.941Z,95.50
2019-03-25T21:34:17.925Z,95.30
2019-03-25T21:36:46.223Z,95.50
2019-03-25T21:39:14.254Z,95.00
2019-03-25T21:41:42.386Z,94.90
2019-03-25T21:44:12.332Z,94.80
2019-03-25T21:46:40.440Z,94.70
2019-03-25T21:49:08.431Z,94.70
2019-03-25T21:51:36.449Z,94.70
2019-03-25T21:54:04.394Z,94.60
2019-03-25T21:56:32.359Z,93.90
2019-03-25T21:59:03.075Z,93.50
2019-03-25T22:01:31.277Z,93.20
2019-03-25T22:03:59.488Z,93.10
2019-03-25T22:06:28.579Z,92.90
2019-03-25T22:08:57.146Z,93.10
2019-03-25T22:11:25.028Z,92.50
2019-03-25T22:13:52.976Z,91.90
2019-03-25T22:16:21.064Z,91.90
2019-03-25T22:18:49.782Z,92.50
2019-03-25T22:21:17.714Z,92.40
2019-03-25T22:23:48.214Z,92.20
2019-03-25T22:26:38.406Z,91.80
2019-03-25T22:29:06.424Z,91.90
2019-03-25T22:31:34.379Z,92.10
2019-03-25T22:34:02.266Z,92.60
2019-03-25T22:36:50.459Z,92.40
2019-03-25T22:39:18.511Z,92.10
2019-03-25T22:41:46.505Z,92.10
2019-03-25T22:44:33.728Z,92.30
2019-03-25T22:47:01.762Z,92.00
2019-03-25T22:49:29.830Z,92.50
2019-03-25T22:52:17.396Z,92.20
2019-03-25T22:54:45.313Z,91.90
2019-03-25T22:57:13.190Z,91.80
2019-03-25T22:59:41.307Z,91.80
2019-03-25T23:02:09.355Z,91.60
2019-03-25T23:04:37.313Z,91.90
2019-03-25T23:07:05.226Z,91.80
2019-03-25T23:09:33.134Z,92.20
2019-03-25T23:12:01.080Z,92.40
2019-03-25T23:14:29.246Z,92.50
2019-03-25T23:16:57.211Z,92.70
2019-03-25T23:19:25.096Z,92.50
2019-03-25T23:21:53.063Z,92.20
2019-03-25T23:24:21.098Z,92.40
2019-03-25T23:27:08.221Z,91.90
2019-03-25T23:29:36.132Z,91.50
2019-03-25T23:32:04.020Z,91.40
2019-03-25T23:34:31.892Z,91.70
2019-03-25T23:36:59.737Z,91.80
2019-03-25T23:39:27.611Z,91.70
2019-03-25T23:41:55.716Z,91.60
2019-03-25T23:44:23.663Z,91.30
2019-03-25T23:47:10.740Z,90.80
2019-03-25T23:49:38.618Z,90.50
2019-03-25T23:52:06.587Z,90.90
2019-03-25T23:54:34.688Z,91.10
2019-03-25T23:57:02.671Z,91.50
2019-03-25T23:59:30.625Z,91.40
